Terminal Aerodrome Forecast
Issued by NWS

Current Version | Previous Version | Text Only | Print | Product List | Glossary On
Versions: 1 2 3 4 5 6 7 8 9 10 11 12 13 14 15 16
700
FTUS45 KABQ 250534
TAFLVS
TAF
KLVS 250534Z 2506/2606 24016G26KT P6SM SCT120
     FM251500 24020G30KT P6SM SCT050 BKN110
     FM251900 27025G35KT P6SM BKN050=

USA.gov is the U.S. government's official web portal to all federal, state and local government web resources and services.